createdAt,value
2022-07-28T00:00:10.776Z,100305.81
2022-07-28T00:03:12.991Z,100298.69
2022-07-28T00:06:16.251Z,100294.00
2022-07-28T00:09:17.989Z,100287.69
2022-07-28T00:12:19.847Z,100275.94
2022-07-28T00:15:21.739Z,100281.63
2022-07-28T00:18:23.655Z,100281.41
2022-07-28T00:21:25.533Z,100284.00
2022-07-28T00:24:27.395Z,100286.25
2022-07-28T00:27:30.150Z,100293.47
2022-07-28T00:30:31.953Z,100290.28
2022-07-28T00:33:35.876Z,100292.38
2022-07-28T00:36:38.113Z,100290.00
2022-07-28T00:39:40.620Z,100284.22
2022-07-28T00:42:44.711Z,100286.34
2022-07-28T00:45:47.654Z,100286.81
2022-07-28T00:48:53.047Z,100283.69
2022-07-28T00:51:54.992Z,100277.63
2022-07-28T00:54:58.722Z,100287.59
2022-07-28T00:58:10.914Z,100286.84
2022-07-28T01:01:16.121Z,100289.47
2022-07-28T01:04:21.363Z,100287.03
2022-07-28T01:08:01.821Z,100278.16
2022-07-28T01:11:21.100Z,100280.09
2022-07-28T01:14:38.435Z,100291.81
2022-07-28T01:17:57.236Z,100291.06
2022-07-28T01:21:04.445Z,100293.72
2022-07-28T01:24:33.193Z,100287.72
2022-07-28T01:28:16.561Z,100296.56
2022-07-28T01:31:24.190Z,100288.44
2022-07-28T01:34:41.137Z,100299.22
2022-07-28T01:37:49.862Z,100296.78
2022-07-28T01:40:54.702Z,100292.91
2022-07-28T01:44:05.287Z,100288.91
2022-07-28T01:47:07.910Z,100294.25
2022-07-28T01:50:11.412Z,100289.03
2022-07-28T01:53:16.058Z,100293.53
2022-07-28T01:56:20.743Z,100295.13
2022-07-28T01:59:26.589Z,100293.53
2022-07-28T02:02:31.569Z,100294.41
2022-07-28T02:05:35.972Z,100285.59
2022-07-28T02:08:40.740Z,100282.25
2022-07-28T02:11:44.523Z,100290.19
2022-07-28T02:14:49.266Z,100293.78
2022-07-28T02:17:53.236Z,100283.22
2022-07-28T02:20:55.194Z,100288.72
2022-07-28T02:23:59.246Z,100287.81
2022-07-28T02:27:34.694Z,100285.09
2022-07-28T02:30:36.634Z,100279.88
2022-07-28T02:33:59.387Z,100286.91
2022-07-28T02:37:06.914Z,100278.03
2022-07-28T02:40:14.802Z,100279.59
2022-07-28T02:43:24.375Z,100286.56
2022-07-28T02:46:38.308Z,100288.31
2022-07-28T02:49:42.067Z,100294.37
2022-07-28T02:52:45.828Z,100291.66
2022-07-28T02:55:50.090Z,100295.13
2022-07-28T02:58:54.423Z,100292.09
2022-07-28T03:01:57.088Z,100297.22
2022-07-28T03:05:01.757Z,100296.88
2022-07-28T03:08:04.494Z,100295.00
2022-07-28T03:11:10.329Z,100296.69
2022-07-28T03:14:12.513Z,100294.06
2022-07-28T03:17:15.343Z,100294.06
2022-07-28T03:20:17.241Z,100304.91
2022-07-28T03:23:21.243Z,100300.25
2022-07-28T03:26:50.009Z,100308.88
2022-07-28T03:30:12.191Z,100308.81
2022-07-28T03:33:15.718Z,100317.28
2022-07-28T03:36:24.889Z,100318.22
2022-07-28T03:39:32.621Z,100314.59
2022-07-28T03:42:35.948Z,100313.44
2022-07-28T03:45:40.842Z,100318.69
2022-07-28T03:48:42.841Z,100315.84
2022-07-28T03:51:44.735Z,100324.56
2022-07-28T03:54:46.715Z,100326.38
2022-07-28T03:57:49.141Z,100329.09
2022-07-28T04:00:51.586Z,100336.31
2022-07-28T04:03:53.599Z,100340.69
2022-07-28T04:06:56.540Z,100352.19
2022-07-28T04:09:58.481Z,100340.75
2022-07-28T04:13:00.616Z,100350.53
2022-07-28T04:16:02.780Z,100347.84
2022-07-28T04:19:04.843Z,100350.53
2022-07-28T04:22:06.605Z,100351.22
2022-07-28T04:25:09.042Z,100348.66
2022-07-28T04:28:11.154Z,100357.69
2022-07-28T04:31:13.408Z,100355.66
2022-07-28T04:34:15.947Z,100357.50
2022-07-28T04:37:18.507Z,100358.56
2022-07-28T04:40:22.603Z,100353.22
2022-07-28T04:43:24.604Z,100359.44
2022-07-28T04:46:26.914Z,100356.03
2022-07-28T04:49:28.781Z,100357.78
2022-07-28T04:52:31.452Z,100354.22
2022-07-28T04:55:33.569Z,100350.72
2022-07-28T04:58:36.726Z,100365.84
2022-07-28T05:01:40.908Z,100359.47
2022-07-28T05:04:43.076Z,100359.28
2022-07-28T05:07:44.992Z,100362.69
2022-07-28T05:13:50.741Z,100357.81
2022-07-28T05:16:52.873Z,100365.78
2022-07-28T05:19:55.282Z,100364.62
2022-07-28T05:22:58.144Z,100364.09
2022-07-28T05:26:00.046Z,100366.66
2022-07-28T05:29:02.204Z,100366.75
2022-07-28T05:32:16.770Z,100368.06
2022-07-28T05:35:19.757Z,100379.53
2022-07-28T05:38:22.200Z,100381.75
2022-07-28T05:41:24.187Z,100390.25
2022-07-28T05:44:26.420Z,100381.62
2022-07-28T05:47:28.451Z,100383.78
2022-07-28T05:50:30.554Z,100386.63
2022-07-28T05:53:32.532Z,100376.56
2022-07-28T05:56:35.301Z,100381.75
2022-07-28T05:59:37.246Z,100389.53
2022-07-28T06:02:40.907Z,100395.03
2022-07-28T06:05:59.391Z,100392.72
2022-07-28T06:09:04.601Z,100394.22
2022-07-28T06:12:07.177Z,100397.63
2022-07-28T06:15:20.868Z,100390.44
2022-07-28T06:18:22.799Z,100394.09
2022-07-28T06:21:24.634Z,100393.16
2022-07-28T06:24:27.041Z,100393.88
2022-07-28T06:27:28.757Z,100387.69
2022-07-28T06:30:32.358Z,100397.81
2022-07-28T06:33:34.263Z,100395.06
2022-07-28T06:36:38.350Z,100397.22
2022-07-28T06:39:40.334Z,100406.09
2022-07-28T06:42:45.685Z,100407.69
2022-07-28T06:45:47.580Z,100406.19
2022-07-28T06:48:49.568Z,100401.44
2022-07-28T06:51:51.329Z,100412.88
2022-07-28T06:54:54.441Z,100415.12
2022-07-28T06:58:00.353Z,100414.41
2022-07-28T07:01:07.962Z,100413.94
2022-07-28T07:04:10.063Z,100416.56
2022-07-28T07:07:17.018Z,100413.06
2022-07-28T07:10:19.159Z,100417.53
2022-07-28T07:13:21.153Z,100424.78
2022-07-28T07:16:23.201Z,100420.53
2022-07-28T07:19:25.061Z,100423.41
2022-07-28T07:22:27.067Z,100420.53
2022-07-28T07:25:28.953Z,100416.97
2022-07-28T07:28:31.055Z,100427.75
2022-07-28T07:31:34.150Z,100433.16
2022-07-28T07:34:36.006Z,100425.44
2022-07-28T07:37:38.060Z,100427.16
2022-07-28T07:40:40.056Z,100426.56
2022-07-28T07:43:47.279Z,100425.91
2022-07-28T07:46:49.531Z,100426.69
2022-07-28T07:49:52.481Z,100425.03
2022-07-28T07:52:54.376Z,100429.34
2022-07-28T07:55:56.242Z,100431.28
2022-07-28T07:58:59.063Z,100428.44
2022-07-28T08:02:03.827Z,100430.53
2022-07-28T08:05:06.723Z,100431.44
2022-07-28T08:08:10.175Z,100437.97
2022-07-28T08:11:13.168Z,100427.34
2022-07-28T08:14:15.212Z,100437.22
2022-07-28T08:17:20.957Z,100429.44
2022-07-28T08:20:25.631Z,100440.72
2022-07-28T08:23:27.548Z,100433.69
2022-07-28T08:26:29.754Z,100431.44
2022-07-28T08:29:31.658Z,100427.50
2022-07-28T08:32:33.532Z,100430.69
2022-07-28T08:35:36.110Z,100431.31
2022-07-28T08:38:38.023Z,100429.28
2022-07-28T08:41:59.084Z,100422.66
2022-07-28T08:45:01.367Z,100430.69
2022-07-28T08:48:08.839Z,100433.84
2022-07-28T08:51:12.176Z,100430.78
2022-07-28T08:54:24.877Z,100425.88
2022-07-28T08:57:34.365Z,100429.87
2022-07-28T09:00:36.924Z,100433.09
2022-07-28T09:03:39.971Z,100432.19
2022-07-28T09:06:42.974Z,100437.66
2022-07-28T09:09:47.958Z,100430.16
2022-07-28T09:12:51.160Z,100443.78
2022-07-28T09:15:57.808Z,100428.78
2022-07-28T09:18:59.667Z,100434.16
2022-07-28T09:22:01.420Z,100435.03
2022-07-28T09:25:04.197Z,100432.00
2022-07-28T09:28:09.142Z,100431.34
2022-07-28T09:31:14.203Z,100432.94
2022-07-28T09:34:18.369Z,100433.44
2022-07-28T09:37:27.040Z,100437.75
2022-07-28T09:40:29.697Z,100428.56
2022-07-28T09:43:39.825Z,100424.38
2022-07-28T09:46:41.819Z,100418.94
2022-07-28T09:49:45.872Z,100417.97
2022-07-28T09:52:49.044Z,100416.97
2022-07-28T09:55:56.342Z,100429.41
2022-07-28T09:59:00.859Z,100433.47
2022-07-28T10:02:03.911Z,100426.16
2022-07-28T10:05:07.100Z,100424.00
2022-07-28T10:08:08.754Z,100417.56
2022-07-28T10:11:11.659Z,100417.41
2022-07-28T10:14:14.461Z,100417.22
2022-07-28T10:17:23.438Z,100407.06
2022-07-28T10:20:28.448Z,100415.12
2022-07-28T10:23:30.557Z,100411.22
2022-07-28T10:26:42.894Z,100402.59
2022-07-28T10:29:45.074Z,100405.47
2022-07-28T10:32:46.977Z,100406.78
2022-07-28T10:35:55.485Z,100399.31
2022-07-28T10:39:12.571Z,100401.62
2022-07-28T10:42:15.470Z,100401.94
2022-07-28T10:45:17.369Z,100398.41
2022-07-28T10:48:23.935Z,100392.69
2022-07-28T10:51:28.338Z,100390.53
2022-07-28T10:54:33.449Z,100385.28
2022-07-28T10:57:41.699Z,100381.03
2022-07-28T11:00:56.680Z,100384.94
2022-07-28T11:04:07.934Z,100376.09
2022-07-28T11:07:14.053Z,100366.66
2022-07-28T11:10:17.459Z,100361.28
2022-07-28T11:13:33.262Z,100370.75
2022-07-28T11:16:36.826Z,100361.56
2022-07-28T11:20:26.043Z,100354.19
2022-07-28T11:23:46.754Z,100362.09
2022-07-28T11:26:51.655Z,100355.19
2022-07-28T11:29:53.629Z,100357.38
2022-07-28T11:32:55.388Z,100354.44
2022-07-28T11:35:58.320Z,100353.03
2022-07-28T11:39:26.221Z,100358.09
2022-07-28T11:42:30.997Z,100346.59
2022-07-28T11:45:38.468Z,100349.00
2022-07-28T11:48:47.045Z,100339.72
2022-07-28T11:52:18.061Z,100343.38
2022-07-28T11:55:21.441Z,100344.00
2022-07-28T11:58:43.862Z,100339.06
2022-07-28T12:01:53.385Z,100335.56
2022-07-28T12:04:58.053Z,100336.03
2022-07-28T12:08:01.035Z,100327.78
2022-07-28T12:11:03.013Z,100322.37
2022-07-28T12:14:07.238Z,100318.91
2022-07-28T12:17:09.667Z,100324.19
2022-07-28T12:20:15.310Z,100318.59
2022-07-28T12:23:34.786Z,100315.75
2022-07-28T12:26:43.178Z,100314.44
2022-07-28T12:29:57.380Z,100310.38
2022-07-28T12:32:59.206Z,100311.53
2022-07-28T12:36:01.279Z,100305.88
2022-07-28T12:39:10.821Z,100306.09
2022-07-28T12:42:21.161Z,100296.81
2022-07-28T12:45:23.187Z,100297.22
2022-07-28T12:48:25.356Z,100301.50
2022-07-28T12:51:38.636Z,100296.19
2022-07-28T12:54:40.344Z,100292.25
2022-07-28T12:57:49.956Z,100298.09
2022-07-28T13:00:54.204Z,100295.91
2022-07-28T13:03:55.938Z,100296.50
2022-07-28T13:06:57.925Z,100301.44
2022-07-28T13:10:05.885Z,100291.63
2022-07-28T13:13:14.165Z,100289.16
2022-07-28T13:16:21.361Z,100292.44
2022-07-28T13:19:24.210Z,100287.47
2022-07-28T13:22:27.901Z,100289.66
2022-07-28T13:25:29.864Z,100286.09
2022-07-28T13:28:31.950Z,100281.31
2022-07-28T13:31:36.015Z,100281.09
2022-07-28T13:34:38.175Z,100280.31
2022-07-28T13:37:40.438Z,100285.53
2022-07-28T13:40:42.349Z,100285.59
2022-07-28T13:43:48.159Z,100276.41
2022-07-28T13:46:50.745Z,100277.63
2022-07-28T13:49:52.651Z,100273.22
2022-07-28T13:52:54.906Z,100275.91
2022-07-28T13:55:56.681Z,100271.37
2022-07-28T13:58:58.462Z,100274.03
2022-07-28T14:02:01.440Z,100269.62
2022-07-28T14:05:05.283Z,100272.66
2022-07-28T14:08:19.790Z,100271.53
2022-07-28T14:11:21.988Z,100262.78
2022-07-28T14:14:28.176Z,100263.47
2022-07-28T14:17:44.812Z,100269.09
2022-07-28T14:20:49.726Z,100263.63
2022-07-28T14:23:52.063Z,100258.50
2022-07-28T14:26:54.580Z,100255.28
2022-07-28T14:29:56.597Z,100258.41
2022-07-28T14:33:06.480Z,100261.16
2022-07-28T14:36:08.463Z,100255.28
2022-07-28T14:39:12.545Z,100252.34
2022-07-28T14:42:15.189Z,100256.53
2022-07-28T14:45:17.278Z,100260.28
2022-07-28T14:48:22.190Z,100248.50
2022-07-28T14:51:24.169Z,100248.25
2022-07-28T14:54:28.004Z,100245.06
2022-07-28T14:57:48.265Z,100248.22
2022-07-28T15:00:51.824Z,100245.16
2022-07-28T15:03:53.691Z,100238.44
2022-07-28T15:06:55.593Z,100231.06
2022-07-28T15:09:57.367Z,100231.84
2022-07-28T15:13:01.239Z,100226.34
2022-07-28T15:16:03.245Z,100227.59
2022-07-28T15:19:06.627Z,100231.59
2022-07-28T15:22:09.332Z,100223.19
2022-07-28T15:25:12.290Z,100221.69
2022-07-28T15:28:17.768Z,100222.66
2022-07-28T15:31:26.003Z,100223.63
2022-07-28T15:34:27.831Z,100226.41
2022-07-28T15:37:30.479Z,100226.66
2022-07-28T15:40:33.608Z,100227.81
2022-07-28T15:43:36.534Z,100223.25
2022-07-28T15:46:42.049Z,100228.38
2022-07-28T15:49:43.933Z,100233.78
2022-07-28T15:52:48.556Z,100228.78
2022-07-28T15:55:51.483Z,100227.63
2022-07-28T15:58:55.751Z,100226.69
2022-07-28T16:01:57.670Z,100227.84
2022-07-28T16:05:01.143Z,100221.72
2022-07-28T16:08:27.275Z,100216.25
2022-07-28T16:11:29.116Z,100226.03
2022-07-28T16:14:31.053Z,100212.50
2022-07-28T16:17:37.287Z,100223.19
2022-07-28T16:20:40.740Z,100214.63
2022-07-28T16:23:42.514Z,100226.16
2022-07-28T16:26:47.119Z,100226.03
2022-07-28T16:29:54.457Z,100224.56
2022-07-28T16:33:02.624Z,100231.34
2022-07-28T16:36:05.391Z,100223.53
2022-07-28T16:39:09.453Z,100222.50
2022-07-28T16:42:11.725Z,100225.56
2022-07-28T16:45:18.290Z,100222.78
2022-07-28T16:48:20.850Z,100220.91
2022-07-28T16:51:22.697Z,100226.78
2022-07-28T16:54:24.623Z,100227.37
2022-07-28T16:57:26.544Z,100231.72
2022-07-28T17:00:29.557Z,100223.56
2022-07-28T17:03:34.792Z,100231.62
2022-07-28T17:06:37.190Z,100234.31
2022-07-28T17:09:39.321Z,100227.13
2022-07-28T17:12:45.232Z,100238.47
2022-07-28T17:15:55.821Z,100239.28
2022-07-28T17:18:57.834Z,100231.56
2022-07-28T17:22:05.310Z,100241.19
2022-07-28T17:25:28.407Z,100238.97
2022-07-28T17:28:31.153Z,100234.03
2022-07-28T17:31:33.688Z,100239.91
2022-07-28T17:34:37.660Z,100234.34
2022-07-28T17:37:42.208Z,100236.38
2022-07-28T17:40:46.301Z,100237.97
2022-07-28T17:43:48.163Z,100243.87
2022-07-28T17:46:50.550Z,100243.16
2022-07-28T17:49:55.335Z,100251.72
2022-07-28T17:52:57.035Z,100250.34
2022-07-28T17:56:01.028Z,100246.38
2022-07-28T17:59:08.316Z,100247.06
2022-07-28T18:02:11.211Z,100241.59
2022-07-28T18:05:13.116Z,100250.25
2022-07-28T18:08:15.792Z,100250.69
2022-07-28T18:11:17.762Z,100248.81
2022-07-28T18:14:19.815Z,100251.34
2022-07-28T18:17:21.936Z,100250.97
2022-07-28T18:20:24.895Z,100255.06
2022-07-28T18:23:30.668Z,100255.25
2022-07-28T18:26:32.603Z,100257.44
2022-07-28T18:29:38.529Z,100255.62
2022-07-28T18:32:40.769Z,100256.25
2022-07-28T18:35:45.138Z,100259.12
2022-07-28T18:38:46.950Z,100264.63
2022-07-28T18:41:48.830Z,100263.22
2022-07-28T18:44:53.222Z,100269.38
2022-07-28T18:47:58.759Z,100264.78
2022-07-28T18:51:01.180Z,100275.94
2022-07-28T18:54:03.682Z,100279.22
2022-07-28T18:57:06.566Z,100281.69
2022-07-28T19:00:13.557Z,100286.16
2022-07-28T19:03:15.499Z,100294.94
2022-07-28T19:06:17.453Z,100293.31
2022-07-28T19:09:19.925Z,100286.19
2022-07-28T19:12:21.706Z,100287.63
2022-07-28T19:15:23.655Z,100297.72
2022-07-28T19:18:25.716Z,100303.84
2022-07-28T19:21:27.721Z,100306.84
2022-07-28T19:24:29.644Z,100317.44
2022-07-28T19:27:33.153Z,100309.91
2022-07-28T19:30:35.291Z,100315.97
2022-07-28T19:33:37.107Z,100317.59
2022-07-28T19:36:45.131Z,100323.69
2022-07-28T19:39:48.258Z,100320.75
2022-07-28T19:42:52.122Z,100323.50
2022-07-28T19:45:57.547Z,100328.75
2022-07-28T19:48:59.455Z,100322.00
2022-07-28T19:52:01.379Z,100322.16
2022-07-28T19:55:06.727Z,100325.88
2022-07-28T19:58:10.823Z,100327.97
2022-07-28T20:01:12.707Z,100323.97
2022-07-28T20:04:24.266Z,100328.22
2022-07-28T20:07:26.141Z,100324.56
2022-07-28T20:10:35.141Z,100330.00
2022-07-28T20:13:39.681Z,100333.53
2022-07-28T20:16:42.909Z,100326.91
2022-07-28T20:19:52.080Z,100331.31
2022-07-28T20:22:54.005Z,100336.94
2022-07-28T20:25:57.686Z,100336.28
2022-07-28T20:29:01.638Z,100331.81
2022-07-28T20:32:03.795Z,100344.59
2022-07-28T20:35:09.829Z,100349.75
2022-07-28T20:38:11.851Z,100351.06
2022-07-28T20:41:13.919Z,100351.31
2022-07-28T20:44:31.180Z,100348.34
2022-07-28T20:47:33.517Z,100352.41
2022-07-28T20:50:37.382Z,100355.75
2022-07-28T20:53:39.326Z,100361.22
2022-07-28T20:56:41.707Z,100365.03
2022-07-28T20:59:43.715Z,100376.88
2022-07-28T21:02:46.725Z,100378.41
2022-07-28T21:05:50.631Z,100380.41
2022-07-28T21:08:54.826Z,100383.31
2022-07-28T21:12:01.636Z,100382.22
2022-07-28T21:15:07.949Z,100397.56
2022-07-28T21:18:15.938Z,100388.91
2022-07-28T21:21:17.746Z,100394.84
2022-07-28T21:24:19.610Z,100400.91
2022-07-28T21:27:21.792Z,100400.06
2022-07-28T21:30:27.657Z,100407.63
2022-07-28T21:33:41.183Z,100405.75
2022-07-28T21:36:48.032Z,100402.31
2022-07-28T21:40:35.140Z,100405.31
2022-07-28T21:43:49.038Z,100413.66
2022-07-28T21:46:51.862Z,100407.97
2022-07-28T21:50:09.362Z,100407.34
2022-07-28T21:56:52.021Z,100415.25
2022-07-28T22:00:03.288Z,100421.38
2022-07-28T22:03:28.991Z,100418.66
2022-07-28T22:06:31.054Z,100418.75
2022-07-28T22:09:37.906Z,100428.81
2022-07-28T22:13:00.351Z,100423.84
2022-07-28T22:16:04.474Z,100417.72
2022-07-28T22:19:06.383Z,100425.28
2022-07-28T22:22:08.224Z,100426.06
2022-07-28T22:25:10.313Z,100431.34
2022-07-28T22:28:12.113Z,100437.25
2022-07-28T22:31:17.120Z,100437.25
2022-07-28T22:34:19.427Z,100434.16
2022-07-28T22:37:21.361Z,100439.41
2022-07-28T22:40:26.327Z,100437.25
2022-07-28T22:43:29.196Z,100436.25
2022-07-28T22:46:33.768Z,100439.66
2022-07-28T22:49:35.692Z,100440.22
2022-07-28T22:52:40.587Z,100438.78
2022-07-28T22:55:42.440Z,100436.81
2022-07-28T22:58:44.218Z,100435.94
2022-07-28T23:01:45.966Z,100436.28
2022-07-28T23:04:52.008Z,100432.00
2022-07-28T23:07:57.278Z,100442.78
2022-07-28T23:10:59.502Z,100448.59
2022-07-28T23:14:02.363Z,100449.31
2022-07-28T23:17:14.533Z,100457.28
2022-07-28T23:20:16.484Z,100455.53
2022-07-28T23:23:18.866Z,100452.03
2022-07-28T23:26:22.651Z,100452.94
2022-07-28T23:29:24.377Z,100451.16
2022-07-28T23:32:26.226Z,100447.97
2022-07-28T23:35:28.300Z,100446.94
2022-07-28T23:38:30.103Z,100448.28
2022-07-28T23:41:32.012Z,100445.56
2022-07-28T23:44:33.980Z,100443.78
2022-07-28T23:47:36.038Z,100443.34
2022-07-28T23:50:38.018Z,100441.34
2022-07-28T23:53:41.264Z,100446.44
2022-07-28T23:56:43.832Z,100430.84
2022-07-28T23:59:45.667Z,100435.28
